No.63koueimaru — JM6455 — position and weather

sailwx.info

Track history (hours):
 
Tides and Currents Weather Stations Pressure Air Temp Water Temp Dewpoint Dewpoint Depression Visibility Wind Speed Wind Dir Waves Ship Positions

No.63koueimaru

Last reported at 2017-Nov-14 10:45 UTC. Time now 2017-Nov-19 05:07 UTC.
Position N 34°52' E 139°48'.

Length 83 m; draft 2.3 m.

Type: Cargo ship. MMSI: 431600379.

Date/timePositionNaut miles runAvg speedWind from/ knotsBaromVisibWave heightAir tempDewpointWater temp
2017-Nov-14 10:45N 34°52' E 139°48'410.9
2017-Nov-14 10:23N 34°55' E 139°45'411.3
2017-Nov-14 10:00N 34°59' E 139°43'611.7
2017-Nov-14 09:30N 35°04' E 139°44'611.9
2017-Nov-14 09:00N 35°10' E 139°46'611.9
2017-Nov-14 08:30N 35°16' E 139°46'611.4
2017-Nov-14 08:00N 35°21' E 139°42'510.8
2017-Nov-14 07:30N 35°26' E 139°46'510.6
2017-Nov-14 07:00N 35°22' E 139°50'0 0.2
2017-Nov-14 04:48N 35°22' E 139°51'0 0.0
2017-Nov-14 04:24N 35°22' E 139°51'1 1.8
2017-Nov-14 04:00N 35°22' E 139°50'3 5.4
2017-Nov-14 03:29N 35°22' E 139°53'0 0.0
2017-Nov-14 02:57N 35°22' E 139°53'0 0.0
2017-Nov-14 02:28N 35°22' E 139°53'0 0.0
2017-Nov-14 01:59N 35°22' E 139°53'0 0.0
2017-Nov-14 01:30N 35°22' E 139°53'0 0.0
2017-Nov-14 01:01N 35°22' E 139°53'3 5.8
2017-Nov-14 00:27N 35°23' E 139°50'4 9.9
2017-Nov-14 00:01N 35°21' E 139°45'510.0
2017-Nov-13 23:30N 35°16' E 139°46'510.4
2017-Nov-13 23:00N 35°11' E 139°47'510.5
2017-Nov-13 22:30N 35°06' E 139°46'510.7
2017-Nov-13 22:00N 35°01' E 139°44'  
2017-Nov-06 01:22N 35°22' E 139°53'0 0.0
2017-Nov-06 00:58N 35°22' E 139°53'0 0.0
2017-Nov-06 00:28N 35°22' E 139°53'0 0.0
2017-Nov-05 23:55N 35°22' E 139°53'0 0.0
2017-Nov-05 23:28N 35°22' E 139°53'0 0.0
2017-Nov-05 23:00N 35°22' E 139°53'2 4.7
2017-Nov-05 22:28N 35°23' E 139°50'4 9.4
2017-Nov-05 22:00N 35°22' E 139°45'5 9.8
2017-Nov-05 21:30N 35°17' E 139°46'610.8
2017-Nov-05 20:59N 35°11' E 139°47'  
Track history (hours):
 
Tides and Currents Weather Stations Pressure Air Temp Water Temp Dewpoint Dewpoint Depression Visibility Wind Speed Wind Dir Waves Ship Positions

No.63koueimaru

Last reported at 2017-Nov-14 10:45 UTC. Time now 2017-Nov-19 05:07 UTC.
Position N 34°52' E 139°48'.

Length 83 m; draft 2.3 m.

Type: Cargo ship. MMSI: 431600379.

Date/timePositionNaut miles runAvg speedWind from/ knotsBaromVisibWave heightAir tempDewpointWater temp
2017-Nov-14 10:45N 34°52' E 139°48'410.9
2017-Nov-14 10:23N 34°55' E 139°45'411.3
2017-Nov-14 10:00N 34°59' E 139°43'611.7
2017-Nov-14 09:30N 35°04' E 139°44'611.9
2017-Nov-14 09:00N 35°10' E 139°46'611.9
2017-Nov-14 08:30N 35°16' E 139°46'611.4
2017-Nov-14 08:00N 35°21' E 139°42'510.8
2017-Nov-14 07:30N 35°26' E 139°46'510.6
2017-Nov-14 07:00N 35°22' E 139°50'0 0.2
2017-Nov-14 04:48N 35°22' E 139°51'0 0.0
2017-Nov-14 04:24N 35°22' E 139°51'1 1.8
2017-Nov-14 04:00N 35°22' E 139°50'3 5.4
2017-Nov-14 03:29N 35°22' E 139°53'0 0.0
2017-Nov-14 02:57N 35°22' E 139°53'0 0.0
2017-Nov-14 02:28N 35°22' E 139°53'0 0.0
2017-Nov-14 01:59N 35°22' E 139°53'0 0.0
2017-Nov-14 01:30N 35°22' E 139°53'0 0.0
2017-Nov-14 01:01N 35°22' E 139°53'3 5.8
2017-Nov-14 00:27N 35°23' E 139°50'4 9.9
2017-Nov-14 00:01N 35°21' E 139°45'510.0
2017-Nov-13 23:30N 35°16' E 139°46'510.4
2017-Nov-13 23:00N 35°11' E 139°47'510.5
2017-Nov-13 22:30N 35°06' E 139°46'510.7
2017-Nov-13 22:00N 35°01' E 139°44'  
2017-Nov-06 01:22N 35°22' E 139°53'0 0.0
2017-Nov-06 00:58N 35°22' E 139°53'0 0.0
2017-Nov-06 00:28N 35°22' E 139°53'0 0.0
2017-Nov-05 23:55N 35°22' E 139°53'0 0.0
2017-Nov-05 23:28N 35°22' E 139°53'0 0.0
2017-Nov-05 23:00N 35°22' E 139°53'2 4.7
2017-Nov-05 22:28N 35°23' E 139°50'4 9.4
2017-Nov-05 22:00N 35°22' E 139°45'5 9.8
2017-Nov-05 21:30N 35°17' E 139°46'610.8
2017-Nov-05 20:59N 35°11' E 139°47'  

Dump ship's entire track history